Cornwall Bridge, Connecticut
Current Conditions -  °F | °C
As of 4:55 AM on Friday 19 Dec 2014 (Local Time) from KOXC Reporting Station
Overcast Overcast  
Wind Chill: 30°   Ceiling: 3200
Heat Index: 34°   Visibility: 10mi
Dew Point: 21°   Wind: 5mph
Humidity: 60%   Direction: 330°NNW
Pressure: 29.93"   Gusts: NA
Location:  41.82°N, 73.37°W
Report Text: KOXC 190955Z 33004KT 10SM FEW025 OVC032 01/M06 A2993 RMK AO1
Loading
Personal Weather Stations






























Interactive Weather Map New forecast layout! Learn more

10-Day Weather Forecast

Advertisements
Track Severe Weather on mobile